createdAt,value
2023-04-15T16:55:00.422Z,97468.00
2023-04-15T16:56:04.030Z,97468.00
2023-04-15T16:57:07.238Z,97468.44
2023-04-15T16:58:10.581Z,97481.88
2023-04-15T16:59:13.871Z,97478.97
2023-04-15T17:00:17.036Z,97475.00
2023-04-15T17:01:22.169Z,97474.22
2023-04-15T17:02:25.239Z,97481.47
2023-04-15T17:03:28.652Z,97482.53
2023-04-15T17:04:33.349Z,97488.81
2023-04-15T17:05:36.606Z,97476.91
2023-04-15T17:06:39.662Z,97477.66
2023-04-15T17:07:42.799Z,97484.84
2023-04-15T17:08:46.362Z,97491.88
2023-04-15T17:09:49.632Z,97488.19
2023-04-15T17:10:52.796Z,97494.81
2023-04-15T17:11:56.304Z,97486.69
2023-04-15T17:13:00.228Z,97482.31
2023-04-15T17:14:03.684Z,97489.69
2023-04-15T17:15:08.239Z,97491.03
2023-04-15T17:16:11.343Z,97495.66
2023-04-15T17:17:17.007Z,97492.16
2023-04-15T17:18:20.353Z,97503.59
2023-04-15T17:19:23.897Z,97505.75
2023-04-15T17:20:27.657Z,97501.37
2023-04-15T17:21:32.243Z,97503.81
2023-04-15T17:22:35.603Z,97504.16
2023-04-15T17:23:39.221Z,97496.94
2023-04-15T17:24:42.455Z,97509.69
2023-04-15T17:25:45.639Z,97513.94
2023-04-15T17:26:48.411Z,97507.19
2023-04-15T17:27:52.668Z,97509.47
2023-04-15T17:28:56.112Z,97514.81
2023-04-15T17:29:59.799Z,97516.72
2023-04-15T17:31:04.624Z,97518.66
2023-04-15T17:32:07.976Z,97515.59
2023-04-15T17:34:01.610Z,97521.47
2023-04-15T17:34:50.036Z,97529.78
2023-04-15T17:35:54.653Z,97525.16
2023-04-15T17:36:59.064Z,97521.78
2023-04-15T17:38:02.939Z,97523.81
2023-04-15T17:39:07.149Z,97525.25
2023-04-15T17:40:12.101Z,97523.72
2023-04-15T17:41:15.992Z,97526.69
2023-04-15T17:42:19.808Z,97526.69
2023-04-15T17:43:23.440Z,97532.00
2023-04-15T17:44:27.197Z,97531.31
2023-04-15T17:45:31.323Z,97528.69
2023-04-15T17:46:35.958Z,97531.13
2023-04-15T17:47:42.541Z,97532.97
2023-04-15T17:48:47.356Z,97534.03
2023-04-15T17:49:51.611Z,97539.53
2023-04-15T17:50:55.153Z,97542.62
2023-04-15T17:51:58.682Z,97543.88
2023-04-15T17:53:02.949Z,97541.25
2023-04-15T17:54:08.933Z,97547.06
2023-04-15T17:55:13.093Z,97542.16
2023-04-15T17:56:16.794Z,97540.78
2023-04-15T17:57:20.043Z,97539.56
2023-04-15T17:58:24.728Z,97545.44
2023-04-15T17:59:28.639Z,97553.25
2023-04-15T18:00:32.224Z,97549.69
2023-04-15T18:01:36.542Z,97550.47
2023-04-15T18:02:40.166Z,97552.75
2023-04-15T18:03:44.644Z,97558.84
2023-04-15T18:04:49.049Z,97555.28
2023-04-15T18:05:53.820Z,97554.47
2023-04-15T18:06:58.120Z,97559.97
2023-04-15T18:08:02.008Z,97555.03
2023-04-15T18:09:05.718Z,97563.34
2023-04-15T18:10:09.944Z,97553.13
2023-04-15T18:11:13.879Z,97559.47
2023-04-15T18:12:17.781Z,97562.25
2023-04-15T18:13:21.280Z,97556.25
2023-04-15T18:14:34.338Z,97564.34
2023-04-15T18:15:38.951Z,97571.59
2023-04-15T18:16:43.341Z,97563.72
2023-04-15T18:17:49.541Z,97565.91
2023-04-15T18:18:53.147Z,97569.50
2023-04-15T18:19:56.815Z,97570.25
2023-04-15T18:21:00.599Z,97573.94
2023-04-15T18:22:04.779Z,97569.31
2023-04-15T18:23:08.262Z,97568.97
2023-04-15T18:24:11.853Z,97570.88
2023-04-15T18:25:16.131Z,97575.59
2023-04-15T18:26:20.021Z,97576.66
2023-04-15T18:27:23.670Z,97580.41
2023-04-15T18:28:27.129Z,97578.06
2023-04-15T18:29:32.020Z,97585.53
2023-04-15T18:30:36.178Z,97579.56
2023-04-15T18:31:39.896Z,97586.59
2023-04-15T18:32:43.159Z,97585.53
2023-04-15T18:33:46.614Z,97593.09
2023-04-15T18:34:50.243Z,97589.97
2023-04-15T18:35:53.864Z,97592.00
2023-04-15T18:36:59.436Z,97597.38
2023-04-15T18:38:03.321Z,97598.75
2023-04-15T18:39:07.319Z,97604.59
2023-04-15T18:40:11.354Z,97601.56
2023-04-15T18:41:15.879Z,97598.97
2023-04-15T18:42:20.574Z,97603.53
2023-04-15T18:43:25.178Z,97602.78
2023-04-15T18:44:29.735Z,97615.72
2023-04-15T18:45:32.997Z,97608.22
2023-04-15T18:46:36.734Z,97604.53
2023-04-15T18:47:40.862Z,97611.50
2023-04-15T18:48:44.352Z,97612.97
2023-04-15T18:49:48.119Z,97609.88
2023-04-15T18:50:54.702Z,97620.84
2023-04-15T18:51:58.580Z,97612.09
2023-04-15T18:53:03.092Z,97621.19
2023-04-15T18:54:07.001Z,97617.88
2023-04-15T18:55:11.028Z,97620.25
2023-04-15T18:56:14.906Z,97620.53
2023-04-15T18:57:24.597Z,97625.88
2023-04-15T18:59:19.391Z,97630.63
2023-04-15T19:00:01.744Z,97632.97
2023-04-15T19:01:05.958Z,97636.41
2023-04-15T19:02:09.762Z,97635.00
2023-04-15T19:03:13.876Z,97636.63
2023-04-15T19:04:17.905Z,97637.63
2023-04-15T19:05:22.131Z,97636.41
2023-04-15T19:06:27.190Z,97640.66
2023-04-15T19:07:33.924Z,97634.81
2023-04-15T19:08:39.054Z,97642.91
2023-04-15T19:09:43.154Z,97639.03
2023-04-15T19:10:47.739Z,97641.00
2023-04-15T19:11:51.452Z,97649.84
2023-04-15T19:12:55.846Z,97647.81
2023-04-15T19:13:59.272Z,97651.38
2023-04-15T19:15:04.101Z,97652.87
2023-04-15T19:16:07.858Z,97649.81
2023-04-15T19:17:11.793Z,97658.03
2023-04-15T19:18:16.036Z,97652.78
2023-04-15T19:19:19.774Z,97658.19
2023-04-15T19:20:23.263Z,97662.34
2023-04-15T19:21:27.238Z,97654.97
2023-04-15T19:22:31.369Z,97661.78
2023-04-15T19:23:34.543Z,97668.06
2023-04-15T19:24:37.672Z,97666.91
2023-04-15T19:25:41.347Z,97666.06
2023-04-15T19:26:45.230Z,97667.06
2023-04-15T19:27:49.855Z,97665.28
2023-04-15T19:28:59.202Z,97665.28
2023-04-15T19:30:04.177Z,97670.19
2023-04-15T19:31:08.174Z,97659.31
2023-04-15T19:32:14.706Z,97669.16
2023-04-15T19:33:18.860Z,97673.03
2023-04-15T19:34:22.756Z,97673.84
2023-04-15T19:35:26.587Z,97672.91
2023-04-15T19:36:30.560Z,97670.09
2023-04-15T19:37:34.312Z,97677.13
2023-04-15T19:38:39.834Z,97673.09
2023-04-15T19:39:44.022Z,97677.03
2023-04-15T19:40:48.915Z,97673.41
2023-04-15T19:41:57.412Z,97674.72
2023-04-15T19:43:01.308Z,97679.16
2023-04-15T19:44:05.545Z,97676.84
2023-04-15T19:45:10.293Z,97677.81
2023-04-15T19:46:14.223Z,97678.03
2023-04-15T19:47:20.360Z,97677.13
2023-04-15T19:48:27.883Z,97683.09
2023-04-15T19:49:31.383Z,97684.09
2023-04-15T19:50:35.097Z,97685.50
2023-04-15T19:51:39.002Z,97685.38
2023-04-15T19:52:45.942Z,97686.66
2023-04-15T19:53:50.534Z,97689.31
2023-04-15T19:54:53.975Z,97690.09
2023-04-15T19:55:57.302Z,97696.34
2023-04-15T19:57:01.814Z,97691.59
2023-04-15T19:58:06.165Z,97694.25
2023-04-15T19:59:10.082Z,97694.47
2023-04-15T20:00:14.063Z,97693.00
2023-04-15T20:01:17.612Z,97697.97
2023-04-15T20:02:21.507Z,97692.25
2023-04-15T20:03:25.996Z,97702.41
2023-04-15T20:04:30.234Z,97705.06
2023-04-15T20:05:34.305Z,97707.22
2023-04-15T20:06:39.324Z,97704.00
2023-04-15T20:07:43.346Z,97704.00
2023-04-15T20:08:46.674Z,97707.37
2023-04-15T20:09:50.971Z,97707.37
2023-04-15T20:10:55.383Z,97714.91
2023-04-15T20:12:47.476Z,97709.38
2023-04-15T20:13:23.120Z,97705.97
2023-04-15T20:14:28.080Z,97713.81
2023-04-15T20:15:32.148Z,97705.06
2023-04-15T20:16:39.065Z,97703.47
2023-04-15T20:17:42.899Z,97704.16
2023-04-15T20:18:46.213Z,97703.19
2023-04-15T20:19:50.145Z,97704.78
2023-04-15T20:20:55.045Z,97703.19
2023-04-15T20:21:58.379Z,97707.84
2023-04-15T20:23:01.816Z,97701.53
2023-04-15T20:24:06.611Z,97713.03
2023-04-15T20:25:10.657Z,97705.00
2023-04-15T20:26:13.904Z,97702.81
2023-04-15T20:27:17.190Z,97703.88
2023-04-15T20:28:21.617Z,97703.12
2023-04-15T20:29:25.993Z,97698.47
2023-04-15T20:30:29.615Z,97699.59
2023-04-15T20:31:38.097Z,97707.94
2023-04-15T20:32:44.724Z,97703.22
2023-04-15T20:33:48.292Z,97708.41
2023-04-15T20:34:52.005Z,97707.44
2023-04-15T20:35:55.697Z,97715.22
2023-04-15T20:36:59.065Z,97709.19
2023-04-15T20:38:04.695Z,97716.91
2023-04-15T20:39:08.486Z,97710.16
2023-04-15T20:40:12.490Z,97715.03
2023-04-15T20:41:16.679Z,97715.00
2023-04-15T20:42:21.014Z,97711.88
2023-04-15T20:43:24.950Z,97715.94
2023-04-15T20:44:38.273Z,97709.53
2023-04-15T20:45:41.823Z,97715.81
2023-04-15T20:46:45.075Z,97718.38
2023-04-15T20:47:48.501Z,97724.66
2023-04-15T20:48:51.784Z,97720.75
2023-04-15T20:49:55.140Z,97722.84
2023-04-15T20:50:58.353Z,97718.41
2023-04-15T20:52:07.485Z,97723.63
2023-04-15T20:53:10.478Z,97722.72
2023-04-15T20:54:13.407Z,97718.28
2023-04-15T20:55:17.162Z,97714.41
2023-04-15T20:56:20.563Z,97719.69
2023-04-15T20:57:24.894Z,97715.31
2023-04-15T20:58:28.537Z,97721.53
2023-04-15T20:59:33.048Z,97719.19
2023-04-15T21:00:36.375Z,97718.91
2023-04-15T21:01:40.587Z,97717.06
2023-04-15T21:02:43.753Z,97730.00
2023-04-15T21:03:47.413Z,97729.00
2023-04-15T21:04:50.580Z,97734.22
2023-04-15T21:05:53.463Z,97731.56
2023-04-15T21:06:56.900Z,97744.34
2023-04-15T21:07:59.975Z,97742.97
2023-04-15T21:09:03.350Z,97737.09
2023-04-15T21:10:07.063Z,97738.91
2023-04-15T21:11:10.357Z,97743.41
2023-04-15T21:12:13.512Z,97746.41
2023-04-15T21:13:17.944Z,97742.53
2023-04-15T21:14:20.962Z,97741.81
2023-04-15T21:15:23.840Z,97742.66
2023-04-15T21:16:27.427Z,97744.44
2023-04-15T21:17:30.492Z,97745.16
2023-04-15T21:18:33.378Z,97743.13
2023-04-15T21:19:38.386Z,97748.06
2023-04-15T21:20:41.348Z,97746.25
2023-04-15T21:21:44.333Z,97753.84
2023-04-15T21:22:47.177Z,97746.81
2023-04-15T21:23:50.027Z,97753.28
2023-04-15T21:24:52.918Z,97752.72
2023-04-15T21:25:56.461Z,97765.63
2023-04-15T21:26:59.470Z,97761.41
2023-04-15T21:28:03.910Z,97765.34
2023-04-15T21:29:09.452Z,97763.47
2023-04-15T21:30:14.333Z,97760.97
2023-04-15T21:31:17.160Z,97763.59
2023-04-15T21:32:20.105Z,97765.72
2023-04-15T21:33:23.407Z,97768.13
2023-04-15T21:34:26.299Z,97763.41
2023-04-15T21:35:30.512Z,97762.13
2023-04-15T21:36:34.086Z,97764.47
2023-04-15T21:37:38.179Z,97768.81
2023-04-15T21:38:41.296Z,97761.84
2023-04-15T21:39:44.235Z,97767.28
2023-04-15T21:40:49.662Z,97767.47
2023-04-15T21:41:52.598Z,97766.00
2023-04-15T21:42:55.616Z,97768.31
2023-04-15T21:43:58.662Z,97760.03
2023-04-15T21:45:01.705Z,97763.19
2023-04-15T21:46:23.647Z,97768.87
2023-04-15T21:47:28.058Z,97772.81
2023-04-15T21:48:31.936Z,97766.06
2023-04-15T21:49:34.985Z,97773.31
2023-04-15T21:50:38.506Z,97766.31
2023-04-15T21:51:41.563Z,97769.16
2023-04-15T21:52:44.396Z,97773.06
2023-04-15T21:53:47.480Z,97770.75
2023-04-15T21:54:50.469Z,97765.78
2023-04-15T21:55:53.396Z,97770.44
2023-04-15T21:56:57.159Z,97768.31
2023-04-15T21:58:00.372Z,97767.81
2023-04-15T21:59:03.475Z,97764.91
2023-04-15T22:00:07.941Z,97772.47
2023-04-15T22:01:11.013Z,97766.41
2023-04-15T22:02:13.979Z,97761.06
2023-04-15T22:03:17.235Z,97774.31
2023-04-15T22:04:20.561Z,97778.97
2023-04-15T22:05:23.587Z,97773.41
2023-04-15T22:06:27.298Z,97773.75
2023-04-15T22:07:30.175Z,97775.69
2023-04-15T22:08:38.746Z,97776.75
2023-04-15T22:09:48.012Z,97777.38
2023-04-15T22:10:50.877Z,97775.31
2023-04-15T22:11:53.903Z,97766.41
2023-04-15T22:13:03.304Z,97768.25
2023-04-15T22:14:06.301Z,97774.50
2023-04-15T22:15:09.556Z,97785.72
2023-04-15T22:16:12.451Z,97780.25
2023-04-15T22:17:15.319Z,97785.72
2023-04-15T22:18:18.163Z,97777.88
2023-04-15T22:19:21.074Z,97780.69
2023-04-15T22:20:23.901Z,97782.37
2023-04-15T22:21:27.039Z,97776.44
2023-04-15T22:22:43.375Z,97781.19
2023-04-15T22:23:48.789Z,97787.91
2023-04-15T22:24:51.670Z,97787.19
2023-04-15T22:25:54.510Z,97783.03
2023-04-15T22:26:59.281Z,97783.56
2023-04-15T22:28:02.202Z,97777.88
2023-04-15T22:29:05.414Z,97785.19
2023-04-15T22:30:08.862Z,97784.41
2023-04-15T22:31:11.877Z,97788.03
2023-04-15T22:32:14.707Z,97782.31
2023-04-15T22:33:17.519Z,97783.81
2023-04-15T22:34:21.761Z,97783.59
2023-04-15T22:35:24.565Z,97781.03
2023-04-15T22:36:28.094Z,97791.44
2023-04-15T22:37:30.977Z,97790.44
2023-04-15T22:38:33.848Z,97786.53
2023-04-15T22:39:36.812Z,97791.19
2023-04-15T22:40:39.675Z,97790.66
2023-04-15T22:41:42.616Z,97784.91
2023-04-15T22:42:46.574Z,97799.72
2023-04-15T22:43:49.384Z,97787.19
2023-04-15T22:44:52.372Z,97783.59
2023-04-15T22:45:55.524Z,97791.63
2023-04-15T22:46:58.536Z,97797.06
2023-04-15T22:48:02.839Z,97789.03
2023-04-15T22:49:09.848Z,97790.81
2023-04-15T22:50:13.550Z,97785.34
2023-04-15T22:51:22.225Z,97789.25
2023-04-15T22:52:30.611Z,97785.84
2023-04-15T22:53:34.448Z,97788.66
2023-04-15T22:54:37.892Z,97782.22
2023-04-15T22:55:44.453Z,97790.03
2023-04-15T22:56:47.316Z,97786.62
2023-04-15T22:57:50.246Z,97795.41
2023-04-15T22:58:53.215Z,97794.31
2023-04-15T22:59:56.326Z,97790.94
2023-04-15T23:00:59.397Z,97792.81
2023-04-15T23:02:02.656Z,97787.34
2023-04-15T23:03:06.136Z,97787.34
2023-04-15T23:04:25.109Z,97793.56
2023-04-15T23:05:30.472Z,97787.56
2023-04-15T23:06:33.585Z,97797.47
2023-04-15T23:07:36.558Z,97792.56
2023-04-15T23:08:39.815Z,97799.47
2023-04-15T23:09:42.798Z,97794.47
2023-04-15T23:10:45.770Z,97794.28
2023-04-15T23:11:48.698Z,97795.75
2023-04-15T23:12:51.379Z,97798.56
2023-04-15T23:13:54.033Z,97793.63
2023-04-15T23:14:56.675Z,97797.97
2023-04-15T23:15:59.476Z,97793.38
2023-04-15T23:17:02.263Z,97792.81
2023-04-15T23:18:05.218Z,97793.66
2023-04-15T23:19:08.202Z,97789.72
2023-04-15T23:20:12.301Z,97788.97
2023-04-15T23:21:15.090Z,97785.88
2023-04-15T23:22:18.885Z,97790.75
2023-04-15T23:23:22.366Z,97791.84
2023-04-15T23:24:25.074Z,97790.87
2023-04-15T23:25:27.743Z,97800.75
2023-04-15T23:26:31.292Z,97796.06
2023-04-15T23:27:34.033Z,97791.66
2023-04-15T23:28:36.644Z,97802.00
2023-04-15T23:29:39.442Z,97797.28
2023-04-15T23:30:42.702Z,97802.81
2023-04-15T23:31:45.503Z,97801.50
2023-04-15T23:32:48.606Z,97801.47
2023-04-15T23:33:51.845Z,97800.41
2023-04-15T23:34:54.515Z,97797.28
2023-04-15T23:35:57.248Z,97799.41
2023-04-15T23:37:00.091Z,97798.44
2023-04-15T23:38:02.924Z,97803.12
2023-04-15T23:39:05.646Z,97802.69
2023-04-15T23:40:08.827Z,97805.09
2023-04-15T23:41:12.255Z,97800.84
2023-04-15T23:42:15.091Z,97800.06
2023-04-15T23:43:17.752Z,97804.56
2023-04-15T23:44:20.700Z,97803.03
2023-04-15T23:45:23.472Z,97806.63
2023-04-15T23:46:26.419Z,97804.19
2023-04-15T23:47:29.661Z,97806.47
2023-04-15T23:48:32.867Z,97802.91
2023-04-15T23:49:36.822Z,97807.88
2023-04-15T23:50:40.316Z,97804.75
2023-04-15T23:51:42.927Z,97812.53
2023-04-15T23:52:46.172Z,97803.22
2023-04-15T23:53:53.283Z,97814.97
2023-04-15T23:54:56.014Z,97811.72
2023-04-15T23:55:58.697Z,97810.66
2023-04-15T23:57:01.676Z,97806.22
2023-04-15T23:58:04.523Z,97811.66
2023-04-15T23:59:07.433Z,97816.59
